createdAt,value
2019-04-06T00:00:25.332Z,8.82
2019-04-06T00:02:55.583Z,8.86
2019-04-06T00:05:25.700Z,8.85
2019-04-06T00:07:55.881Z,8.81
2019-04-06T00:10:26.040Z,8.76
2019-04-06T00:12:57.255Z,8.74
2019-04-06T00:15:27.398Z,8.75
2019-04-06T00:17:57.590Z,8.70
2019-04-06T00:20:27.723Z,8.70
2019-04-06T00:22:57.937Z,8.61
2019-04-06T00:25:28.087Z,8.60
2019-04-06T00:27:58.449Z,8.48
2019-04-06T00:30:31.187Z,8.49
2019-04-06T00:33:07.837Z,8.54
2019-04-06T00:35:38.077Z,8.55
2019-04-06T00:38:08.248Z,8.45
2019-04-06T00:40:38.495Z,8.34
2019-04-06T00:43:08.892Z,8.32
2019-04-06T00:45:39.217Z,8.23
2019-04-06T00:48:09.478Z,8.20
2019-04-06T00:50:39.650Z,8.12
2019-04-06T00:53:09.812Z,8.18
2019-04-06T00:55:39.989Z,8.24
2019-04-06T00:58:10.260Z,8.25
2019-04-06T01:00:40.486Z,8.30
2019-04-06T01:03:10.764Z,8.23
2019-04-06T01:05:40.903Z,8.24
2019-04-06T01:08:11.129Z,8.27
2019-04-06T01:10:41.748Z,8.20
2019-04-06T01:13:12.900Z,8.15
2019-04-06T01:15:43.171Z,8.17
2019-04-06T01:18:13.232Z,8.15
2019-04-06T01:20:43.367Z,8.19
2019-04-06T01:23:13.518Z,8.21
2019-04-06T01:25:43.705Z,7.99
2019-04-06T01:28:13.909Z,8.03
2019-04-06T01:30:44.061Z,8.07
2019-04-06T01:33:14.237Z,8.02
2019-04-06T01:35:44.405Z,8.08
2019-04-06T01:38:16.695Z,8.09
2019-04-06T01:40:46.948Z,8.13
2019-04-06T01:43:17.165Z,8.06
2019-04-06T01:45:47.413Z,8.12
2019-04-06T01:48:17.554Z,8.04
2019-04-06T01:50:47.774Z,8.08
2019-04-06T01:53:17.919Z,8.15
2019-04-06T01:55:49.181Z,8.08
2019-04-06T01:58:19.292Z,8.08
2019-04-06T02:01:02.970Z,8.10
2019-04-06T02:03:33.107Z,8.05
2019-04-06T02:06:03.861Z,8.10
2019-04-06T02:08:34.012Z,8.10
2019-04-06T02:11:04.532Z,8.12
2019-04-06T02:13:34.688Z,8.04
2019-04-06T02:16:06.227Z,8.02
2019-04-06T02:18:37.251Z,8.12
2019-04-06T02:21:07.413Z,8.15
2019-04-06T02:23:37.665Z,8.11
2019-04-06T02:26:07.788Z,8.14
2019-04-06T02:28:37.932Z,8.06
2019-04-06T02:31:27.062Z,8.12
2019-04-06T02:34:19.086Z,8.20
2019-04-06T02:37:14.211Z,8.24
2019-04-06T02:39:55.113Z,8.28
2019-04-06T02:42:40.617Z,8.22
2019-04-06T02:45:11.063Z,8.19
2019-04-06T02:47:41.201Z,8.15
2019-04-06T02:50:11.383Z,8.18
2019-04-06T02:52:41.560Z,8.15
2019-04-06T02:55:14.442Z,8.07
2019-04-06T02:57:44.593Z,8.07
2019-04-06T03:00:14.925Z,8.01
2019-04-06T03:02:45.060Z,7.94
2019-04-06T03:05:15.216Z,7.96
2019-04-06T03:07:45.386Z,8.01
2019-04-06T03:10:15.608Z,7.89
2019-04-06T03:12:45.778Z,7.84
2019-04-06T03:15:17.611Z,7.82
2019-04-06T03:17:47.781Z,7.71
2019-04-06T03:20:17.945Z,7.68
2019-04-06T03:22:48.124Z,7.62
2019-04-06T03:25:18.285Z,7.57
2019-04-06T03:27:48.536Z,7.37
2019-04-06T03:30:18.617Z,7.54
2019-04-06T03:32:49.820Z,7.57
2019-04-06T03:35:19.981Z,7.56
2019-04-06T03:37:50.179Z,7.54
2019-04-06T03:40:20.326Z,7.53
2019-04-06T03:42:50.524Z,7.55
2019-04-06T03:45:20.672Z,7.57
2019-04-06T03:47:50.882Z,7.56
2019-04-06T03:50:21.206Z,7.43
2019-04-06T03:52:51.625Z,7.41
2019-04-06T03:55:21.734Z,7.42
2019-04-06T03:57:51.867Z,7.49
2019-04-06T04:00:21.895Z,7.34
2019-04-06T04:02:52.263Z,7.36
2019-04-06T04:05:22.385Z,7.26
2019-04-06T04:07:55.748Z,7.29
2019-04-06T04:10:34.299Z,7.34
2019-04-06T04:13:05.218Z,7.28
2019-04-06T04:15:35.436Z,7.27
2019-04-06T04:18:06.035Z,7.02
2019-04-06T04:20:37.750Z,7.14
2019-04-06T04:23:08.136Z,7.15
2019-04-06T04:25:38.383Z,7.15
2019-04-06T04:28:08.553Z,7.12
2019-04-06T04:30:38.920Z,7.13
2019-04-06T04:33:09.064Z,7.13
2019-04-06T04:35:39.240Z,7.10
2019-04-06T04:38:09.643Z,7.04
2019-04-06T04:40:40.734Z,6.90
2019-04-06T04:43:11.135Z,7.01
2019-04-06T04:45:41.211Z,6.97
2019-04-06T04:48:11.489Z,6.96
2019-04-06T04:50:41.825Z,6.90
2019-04-06T04:53:12.085Z,6.96
2019-04-06T04:55:42.362Z,6.98
2019-04-06T04:58:12.564Z,6.97
2019-04-06T05:00:42.731Z,6.99
2019-04-06T05:03:12.884Z,6.85
2019-04-06T05:05:43.109Z,6.95
2019-04-06T05:08:13.343Z,6.94
2019-04-06T05:10:43.682Z,6.95
2019-04-06T05:13:13.934Z,6.92
2019-04-06T05:16:21.832Z,6.92
2019-04-06T05:18:52.082Z,6.85
2019-04-06T05:21:24.989Z,6.80
2019-04-06T05:23:55.166Z,6.88
2019-04-06T05:26:25.440Z,6.91
2019-04-06T05:28:55.587Z,6.90
2019-04-06T05:31:25.921Z,6.93
2019-04-06T05:33:56.105Z,6.90
2019-04-06T05:36:26.292Z,6.92
2019-04-06T05:38:56.463Z,6.93
2019-04-06T05:41:26.697Z,6.82
2019-04-06T05:43:56.793Z,6.87
2019-04-06T05:46:29.853Z,6.83
2019-04-06T05:48:59.954Z,6.85
2019-04-06T05:51:36.211Z,6.87
2019-04-06T05:54:06.448Z,6.99
2019-04-06T05:56:36.606Z,6.73
2019-04-06T05:59:10.057Z,6.96
2019-04-06T06:01:40.523Z,7.04
2019-04-06T06:04:10.796Z,7.05
2019-04-06T06:06:41.628Z,7.06
2019-04-06T06:09:13.622Z,7.26
2019-04-06T06:11:43.896Z,7.17
2019-04-06T06:14:14.369Z,7.32
2019-04-06T06:16:44.542Z,7.43
2019-04-06T06:19:15.139Z,7.34
2019-04-06T06:21:45.307Z,7.45
2019-04-06T06:24:15.506Z,7.47
2019-04-06T06:26:45.683Z,7.49
2019-04-06T06:29:15.822Z,7.54
2019-04-06T06:31:45.986Z,7.64
2019-04-06T06:34:16.090Z,7.53
2019-04-06T06:36:46.263Z,7.62
2019-04-06T06:39:16.533Z,7.77
2019-04-06T06:41:47.119Z,7.79
2019-04-06T06:44:19.224Z,7.72
2019-04-06T06:46:49.476Z,7.72
2019-04-06T06:49:19.647Z,7.67
2019-04-06T06:51:50.018Z,7.72
2019-04-06T06:54:20.162Z,7.75
2019-04-06T06:56:53.454Z,7.73
2019-04-06T06:59:23.643Z,7.56
2019-04-06T07:01:53.877Z,7.75
2019-04-06T07:04:24.058Z,7.87
2019-04-06T07:06:54.240Z,7.94
2019-04-06T07:09:24.384Z,8.10
2019-04-06T07:11:54.565Z,7.93
2019-04-06T07:14:24.693Z,8.20
2019-04-06T07:16:54.917Z,8.22
2019-04-06T07:19:25.104Z,8.27
2019-04-06T07:21:55.491Z,8.52
2019-04-06T07:24:25.759Z,8.63
2019-04-06T07:26:55.977Z,8.81
2019-04-06T07:29:26.126Z,8.91
2019-04-06T07:31:56.354Z,9.03
2019-04-06T07:34:26.525Z,9.04
2019-04-06T07:36:56.672Z,9.07
2019-04-06T07:39:26.902Z,9.14
2019-04-06T07:41:57.107Z,9.21
2019-04-06T07:44:27.342Z,9.27
2019-04-06T07:46:57.533Z,9.23
2019-04-06T07:49:31.293Z,9.15
2019-04-06T07:52:01.536Z,9.50
2019-04-06T07:54:31.705Z,9.27
2019-04-06T07:57:02.030Z,9.31
2019-04-06T07:59:32.197Z,9.45
2019-04-06T08:02:02.388Z,9.44
2019-04-06T08:04:32.720Z,9.26
2019-04-06T08:07:02.957Z,9.18
2019-04-06T08:09:33.155Z,9.07
2019-04-06T08:12:08.775Z,9.10
2019-04-06T08:14:39.261Z,9.26
2019-04-06T08:17:09.379Z,9.41
2019-04-06T08:19:39.571Z,9.69
2019-04-06T08:22:23.243Z,9.87
2019-04-06T08:24:53.563Z,10.13
2019-04-06T08:27:23.852Z,10.33
2019-04-06T08:29:54.020Z,10.25
2019-04-06T08:32:24.525Z,10.43
2019-04-06T08:34:54.767Z,10.57
2019-04-06T08:37:28.341Z,10.61
2019-04-06T08:39:58.702Z,10.74
2019-04-06T08:42:28.885Z,10.58
2019-04-06T08:44:59.217Z,9.89
2019-04-06T08:47:29.305Z,10.19
2019-04-06T08:49:59.599Z,10.35
2019-04-06T08:52:29.799Z,10.49
2019-04-06T08:55:00.000Z,10.60
2019-04-06T08:57:30.437Z,10.51
2019-04-06T09:00:01.822Z,10.63
2019-04-06T09:02:33.709Z,10.47
2019-04-06T09:05:06.198Z,10.51
2019-04-06T09:07:36.341Z,10.57
2019-04-06T09:10:06.648Z,10.71
2019-04-06T09:12:37.041Z,10.90
2019-04-06T09:15:07.844Z,11.07
2019-04-06T09:17:38.096Z,10.76
2019-04-06T09:20:08.639Z,11.11
2019-04-06T09:22:40.408Z,11.24
2019-04-06T09:25:10.611Z,11.35
2019-04-06T09:27:40.759Z,11.40
2019-04-06T09:30:10.919Z,11.55
2019-04-06T09:32:41.434Z,11.63
2019-04-06T09:35:13.278Z,11.66
2019-04-06T09:37:43.421Z,11.60
2019-04-06T09:40:13.827Z,11.83
2019-04-06T09:42:44.093Z,11.92
2019-04-06T09:45:32.053Z,12.10
2019-04-06T09:48:11.645Z,12.03
2019-04-06T09:51:13.058Z,12.15
2019-04-06T09:54:06.188Z,12.18
2019-04-06T09:56:54.918Z,12.13
2019-04-06T09:59:37.592Z,12.34
2019-04-06T10:02:29.981Z,12.55
2019-04-06T10:05:19.270Z,12.64
2019-04-06T10:08:12.880Z,12.50
2019-04-06T10:11:00.130Z,12.67
2019-04-06T10:13:58.043Z,12.88
2019-04-06T10:16:45.850Z,12.75
2019-04-06T10:19:43.806Z,12.94
2019-04-06T10:22:31.710Z,12.92
2019-04-06T10:25:35.845Z,13.01
2019-04-06T10:28:34.982Z,13.07
2019-04-06T10:31:29.932Z,13.28
2019-04-06T10:34:25.067Z,13.34
2019-04-06T10:37:18.589Z,13.38
2019-04-06T10:40:05.714Z,13.33
2019-04-06T10:42:53.714Z,13.47
2019-04-06T10:45:54.796Z,13.48
2019-04-06T10:48:33.942Z,13.54
2019-04-06T10:51:25.894Z,13.64
2019-04-06T10:54:14.015Z,13.73
2019-04-06T10:57:02.521Z,13.76
2019-04-06T10:59:59.902Z,13.88
2019-04-06T11:02:37.396Z,13.91
2019-04-06T11:05:38.764Z,13.96
2019-04-06T11:08:18.408Z,13.98
2019-04-06T11:11:20.625Z,14.07
2019-04-06T11:14:09.823Z,14.08
2019-04-06T11:16:59.028Z,14.15
2019-04-06T11:19:38.338Z,14.21
2019-04-06T11:22:30.485Z,14.31
2019-04-06T11:25:12.141Z,14.30
2019-04-06T11:27:52.320Z,14.33
2019-04-06T11:30:40.048Z,14.37
2019-04-06T11:33:41.212Z,14.50
2019-04-06T11:36:22.793Z,14.57
2019-04-06T11:39:18.088Z,14.73
2019-04-06T11:42:07.186Z,14.60
2019-04-06T11:44:56.419Z,14.71
2019-04-06T11:47:48.444Z,14.84
2019-04-06T11:50:38.871Z,14.88
2019-04-06T11:53:43.579Z,14.93
2019-04-06T11:56:33.007Z,15.08
2019-04-06T11:59:31.002Z,15.12
2019-04-06T12:02:39.013Z,15.15
2019-04-06T12:05:17.508Z,15.21
2019-04-06T12:08:11.511Z,15.23
2019-04-06T12:11:01.405Z,15.28
2019-04-06T12:13:55.970Z,15.38
2019-04-06T12:16:35.735Z,15.38
2019-04-06T12:19:31.009Z,15.40
2019-04-06T12:22:32.715Z,15.43
2019-04-06T12:25:11.232Z,15.51
2019-04-06T12:27:56.971Z,15.60
2019-04-06T12:30:50.556Z,15.75
2019-04-06T12:33:33.938Z,15.84
2019-04-06T12:36:26.331Z,15.80
2019-04-06T12:39:14.148Z,15.83
2019-04-06T12:42:02.003Z,15.96
2019-04-06T12:44:51.192Z,16.05
2019-04-06T12:47:43.433Z,16.18
2019-04-06T12:50:41.777Z,16.27
2019-04-06T12:53:37.721Z,16.26
2019-04-06T12:56:32.619Z,16.23
2019-04-06T12:59:31.167Z,16.29
2019-04-06T13:02:20.348Z,16.27
2019-04-06T13:05:13.325Z,16.25
2019-04-06T13:08:08.075Z,16.31
2019-04-06T13:10:47.267Z,16.34
2019-04-06T13:13:42.538Z,16.37
2019-04-06T13:16:30.585Z,16.40
2019-04-06T13:19:25.903Z,16.43
2019-04-06T13:22:27.181Z,16.52
2019-04-06T13:25:07.545Z,16.48
2019-04-06T13:28:09.043Z,16.52
2019-04-06T13:31:04.145Z,16.63
2019-04-06T13:33:53.611Z,16.64
2019-04-06T13:36:42.799Z,16.67
2019-04-06T13:39:37.844Z,16.69
2019-04-06T13:42:42.464Z,16.74
2019-04-06T13:45:26.044Z,16.81
2019-04-06T13:48:13.775Z,16.79
2019-04-06T13:51:18.309Z,16.86
2019-04-06T13:54:06.879Z,16.85
2019-04-06T13:57:00.909Z,16.86
2019-04-06T13:59:48.822Z,16.93
2019-04-06T14:02:29.372Z,16.96
2019-04-06T14:05:18.532Z,17.05
2019-04-06T14:07:55.422Z,17.08
2019-04-06T14:10:35.499Z,17.18
2019-04-06T14:13:27.809Z,17.22
2019-04-06T14:16:32.332Z,17.27
2019-04-06T14:19:19.626Z,17.29
2019-04-06T14:22:17.619Z,17.33
2019-04-06T14:25:01.516Z,17.35
2019-04-06T14:27:53.612Z,17.42
2019-04-06T14:30:51.693Z,17.41
2019-04-06T14:33:39.978Z,17.47
2019-04-06T14:36:21.296Z,17.51
2019-04-06T14:39:08.560Z,17.61
2019-04-06T14:41:50.129Z,17.64
2019-04-06T14:44:40.768Z,17.69
2019-04-06T14:47:36.019Z,17.77
2019-04-06T14:50:21.405Z,17.82
2019-04-06T14:53:17.254Z,17.87
2019-04-06T14:55:52.590Z,17.91
2019-04-06T14:58:38.408Z,17.91
2019-04-06T15:01:18.403Z,17.96
2019-04-06T15:04:07.147Z,17.96
2019-04-06T15:06:54.866Z,18.06
2019-04-06T15:09:46.760Z,18.19
2019-04-06T15:12:24.771Z,18.21
2019-04-06T15:15:14.423Z,18.26
2019-04-06T15:18:02.374Z,18.27
2019-04-06T15:20:52.718Z,18.31
2019-04-06T15:23:32.306Z,18.35
2019-04-06T15:26:18.308Z,18.36
2019-04-06T15:29:05.678Z,18.49
2019-04-06T15:31:53.538Z,18.53
2019-04-06T15:34:36.994Z,18.55
2019-04-06T15:37:19.836Z,18.57
2019-04-06T15:40:15.000Z,18.59
2019-04-06T15:43:02.911Z,18.62
2019-04-06T15:45:55.158Z,18.67
2019-04-06T15:48:43.016Z,18.84
2019-04-06T15:51:30.941Z,18.93
2019-04-06T15:54:22.861Z,19.22
2019-04-06T15:57:02.224Z,19.52
2019-04-06T15:59:57.356Z,19.68
2019-04-06T16:02:33.922Z,19.81
2019-04-06T16:05:26.367Z,19.92
2019-04-06T16:08:14.391Z,20.04
2019-04-06T16:11:06.666Z,20.28
2019-04-06T16:13:52.576Z,20.46
2019-04-06T16:16:42.134Z,20.60
2019-04-06T16:19:31.779Z,20.50
2019-04-06T16:22:26.988Z,20.53
2019-04-06T16:25:22.247Z,20.53
2019-04-06T16:28:07.262Z,20.41
2019-04-06T16:31:02.511Z,20.40
2019-04-06T16:33:48.326Z,20.51
2019-04-06T16:36:49.901Z,20.51
2019-04-06T16:39:54.100Z,20.73
2019-04-06T16:42:40.929Z,20.62
2019-04-06T16:45:23.088Z,20.73
2019-04-06T16:48:12.281Z,20.82
2019-04-06T16:51:00.111Z,20.78
2019-04-06T16:53:52.272Z,20.74
2019-04-06T16:56:45.193Z,20.74
2019-04-06T16:59:33.033Z,20.52
2019-04-06T17:02:24.449Z,20.58
2019-04-06T17:05:11.250Z,20.63
2019-04-06T17:07:49.922Z,20.35
2019-04-06T17:10:45.588Z,20.11
2019-04-06T17:13:38.625Z,19.90
2019-04-06T17:16:18.987Z,19.50
2019-04-06T17:19:07.089Z,19.16
2019-04-06T17:21:55.127Z,18.87
2019-04-06T17:24:42.113Z,18.59
2019-04-06T17:27:37.434Z,18.37
2019-04-06T17:30:23.332Z,18.11
2019-04-06T17:33:05.335Z,17.95
2019-04-06T17:35:53.391Z,17.74
2019-04-06T17:38:45.209Z,17.55
2019-04-06T17:41:52.479Z,17.39
2019-04-06T17:44:47.681Z,17.24
2019-04-06T17:47:49.096Z,17.07
2019-04-06T17:50:27.800Z,16.94
2019-04-06T17:53:29.015Z,16.74
2019-04-06T17:56:36.376Z,16.61
2019-04-06T17:59:24.772Z,16.42
2019-04-06T18:02:23.204Z,16.21
2019-04-06T18:05:24.438Z,16.10
2019-04-06T18:08:06.029Z,16.00
2019-04-06T18:10:47.294Z,15.93
2019-04-06T18:13:39.506Z,15.84
2019-04-06T18:16:09.742Z,15.72
2019-04-06T18:18:41.111Z,15.59
2019-04-06T18:21:11.335Z,15.50
2019-04-06T18:23:41.534Z,15.40
2019-04-06T18:26:11.756Z,15.30
2019-04-06T18:28:42.009Z,15.25
2019-04-06T18:31:43.637Z,15.21
2019-04-06T18:34:14.445Z,15.23
2019-04-06T18:37:00.368Z,15.25
2019-04-06T18:39:31.623Z,15.20
2019-04-06T18:42:01.903Z,15.13
2019-04-06T18:44:32.092Z,15.05
2019-04-06T18:47:02.345Z,15.03
2019-04-06T18:49:33.127Z,14.95
2019-04-06T18:52:06.748Z,14.86
2019-04-06T18:54:43.181Z,14.78
2019-04-06T18:57:16.147Z,14.73
2019-04-06T18:59:47.046Z,14.69
2019-04-06T19:02:18.004Z,14.63
2019-04-06T19:04:48.666Z,14.58
2019-04-06T19:07:19.314Z,14.55
2019-04-06T19:09:50.141Z,14.52
2019-04-06T19:12:21.153Z,14.47
2019-04-06T19:14:53.212Z,14.43
2019-04-06T19:17:23.932Z,14.35
2019-04-06T19:19:54.604Z,14.28
2019-04-06T19:22:25.179Z,14.20
2019-04-06T19:24:56.672Z,14.13
2019-04-06T19:27:27.454Z,14.08
2019-04-06T19:29:58.351Z,14.03
2019-04-06T19:32:29.618Z,14.08
2019-04-06T19:35:01.142Z,14.03
2019-04-06T19:37:35.160Z,14.14
2019-04-06T19:40:07.152Z,14.14
2019-04-06T19:42:38.953Z,14.11
2019-04-06T19:45:10.656Z,14.05
2019-04-06T19:47:41.150Z,13.96
2019-04-06T19:50:13.685Z,13.92
2019-04-06T19:52:44.194Z,13.86
2019-04-06T19:55:16.174Z,13.91
2019-04-06T19:57:50.681Z,13.91
2019-04-06T20:00:22.770Z,13.91
2019-04-06T20:02:53.149Z,13.85
2019-04-06T20:05:23.959Z,13.82
2019-04-06T20:07:58.378Z,13.76
2019-04-06T20:10:33.867Z,13.68
2019-04-06T20:13:04.114Z,13.58
2019-04-06T20:15:34.530Z,13.56
2019-04-06T20:18:04.961Z,13.54
2019-04-06T20:20:35.346Z,13.52
2019-04-06T20:23:06.295Z,13.46
2019-04-06T20:25:37.334Z,13.40
2019-04-06T20:28:07.885Z,13.34
2019-04-06T20:30:38.547Z,13.30
2019-04-06T20:33:09.694Z,13.25
2019-04-06T20:35:40.632Z,13.23
2019-04-06T20:38:11.927Z,13.17
2019-04-06T20:40:45.390Z,13.13
2019-04-06T20:43:16.370Z,13.09
2019-04-06T20:45:48.894Z,13.05
2019-04-06T20:48:19.473Z,13.04
2019-04-06T20:50:50.035Z,13.06
2019-04-06T20:53:20.352Z,13.11
2019-04-06T20:55:50.904Z,13.12
2019-04-06T20:58:21.234Z,13.19
2019-04-06T21:01:03.596Z,13.14
2019-04-06T21:03:36.806Z,13.07
2019-04-06T21:06:07.417Z,13.00
2019-04-06T21:08:37.532Z,13.01
2019-04-06T21:11:08.326Z,13.01
2019-04-06T21:13:39.035Z,13.04
2019-04-06T21:16:09.340Z,13.11
2019-04-06T21:18:40.012Z,13.08
2019-04-06T21:21:10.296Z,13.05
2019-04-06T21:23:40.430Z,12.99
2019-04-06T21:26:10.949Z,12.90
2019-04-06T21:28:41.140Z,12.83
2019-04-06T21:31:12.565Z,12.78
2019-04-06T21:33:45.037Z,12.71
2019-04-06T21:36:15.213Z,12.70
2019-04-06T21:38:45.586Z,12.65
2019-04-06T21:41:16.060Z,12.74
2019-04-06T21:43:46.278Z,12.75
2019-04-06T21:46:16.907Z,12.69
2019-04-06T21:48:47.252Z,12.61
2019-04-06T21:51:18.029Z,12.53
2019-04-06T21:53:48.424Z,12.51
2019-04-06T21:56:19.159Z,12.54
2019-04-06T21:58:49.418Z,12.58
2019-04-06T22:01:20.948Z,12.53
2019-04-06T22:03:52.719Z,12.50
2019-04-06T22:06:25.030Z,12.47
2019-04-06T22:08:55.163Z,12.44
2019-04-06T22:11:25.306Z,12.39
2019-04-06T22:13:55.489Z,12.28
2019-04-06T22:16:25.726Z,12.30
2019-04-06T22:18:56.432Z,12.27
2019-04-06T22:21:27.138Z,12.21
2019-04-06T22:23:57.892Z,12.10
2019-04-06T22:26:28.087Z,12.05
2019-04-06T22:28:58.314Z,11.99
2019-04-06T22:31:29.029Z,11.95
2019-04-06T22:33:59.447Z,11.91
2019-04-06T22:36:29.579Z,11.84
2019-04-06T22:38:59.769Z,11.86
2019-04-06T22:41:29.921Z,11.86
2019-04-06T22:44:00.711Z,11.82
2019-04-06T22:46:31.559Z,11.81
2019-04-06T22:49:01.848Z,11.80
2019-04-06T22:51:32.195Z,11.78
2019-04-06T22:54:02.538Z,11.74
2019-04-06T22:56:32.699Z,11.67
2019-04-06T22:59:04.832Z,11.60
2019-04-06T23:01:37.378Z,11.59
2019-04-06T23:04:47.327Z,11.51
2019-04-06T23:07:09.897Z,11.49
2019-04-06T23:09:40.232Z,11.46
2019-04-06T23:12:10.391Z,11.43
2019-04-06T23:14:40.587Z,11.43
2019-04-06T23:17:11.229Z,11.40
2019-04-06T23:19:41.950Z,11.39
2019-04-06T23:22:12.498Z,11.36
2019-04-06T23:24:43.206Z,11.35
2019-04-06T23:27:13.699Z,11.32
2019-04-06T23:29:44.058Z,11.31
2019-04-06T23:32:14.803Z,11.32
2019-04-06T23:34:45.049Z,11.38
2019-04-06T23:37:16.718Z,11.39
2019-04-06T23:39:46.990Z,11.42
2019-04-06T23:42:17.237Z,11.38
2019-04-06T23:44:47.782Z,11.36
2019-04-06T23:47:18.124Z,11.39
2019-04-06T23:49:48.280Z,11.44
2019-04-06T23:52:18.448Z,11.35
2019-04-06T23:54:48.733Z,11.25
2019-04-06T23:57:18.845Z,11.25
2019-04-06T23:59:49.113Z,11.23
